Time;durP1;ratioP1;P1;durP2;ratioP2;P2;SDS_P1;SDS_P2;PMS_P1;PMS_P2;Temp;Humidity;BMP_temperature;BMP_pressure;BME280_temperature;BME280_humidity;BME280_pressure;Samples;Min_cycle;Max_cycle;Signal;HPM_P1;HPM_P2
2022/12/17 13:07:48;;;;;;;14.73;12.30;;;11.10;61.40;;;;;;5072425;28;20248;-78
2022/12/17 13:10:29;;;;;;;16.10;11.68;;;11.50;55.90;;;;;;5073756;28;20207;-78
2022/12/17 13:12:55;;;;;;;16.65;12.20;;;11.60;58.80;;;;;;5071702;28;20768;-78
2022/12/17 13:15:33;;;;;;;16.40;12.65;;;11.20;59.30;;;;;;5070250;28;20167;-77
2022/12/17 13:18:39;;;;;;;17.75;13.02;;;10.50;60.40;;;;;;5074611;28;20171;-77
2022/12/17 13:21:24;;;;;;;17.98;12.90;;;9.30;59.60;;;;;;5076987;28;20187;-77
2022/12/17 13:23:50;;;;;;;18.58;13.90;;;8.60;63.10;;;;;;5077850;28;20187;-77
2022/12/17 13:26:17;;;;;;;18.80;14.15;;;8.30;63.00;;;;;;5075492;28;20175;-77
2022/12/17 13:28:58;;;;;;;17.60;13.52;;;8.10;65.30;;;;;;5076510;28;20640;-77
2022/12/17 13:31:38;;;;;;;17.27;13.00;;;8.00;64.70;;;;;;5074877;28;20180;-77
2022/12/17 13:34:19;;;;;;;17.58;13.38;;;7.40;66.60;;;;;;5076386;28;20220;-77
2022/12/17 13:36:55;;;;;;;17.55;11.35;;;6.80;71.50;;;;;;5077102;28;20197;-77
2022/12/17 13:39:35;;;;;;;17.83;13.10;;;6.20;74.50;;;;;;5076657;28;20191;-75
2022/12/17 13:42:02;;;;;;;16.48;12.75;;;5.70;78.00;;;;;;5077402;28;20166;-74
2022/12/17 13:44:43;;;;;;;16.77;12.63;;;5.10;79.70;;;;;;5072794;28;20202;-74
2022/12/17 13:47:22;;;;;;;20.92;13.57;;;4.60;80.30;;;;;;5072130;28;20279;-74
2022/12/17 13:49:57;;;;;;;15.05;12.05;;;4.10;80.10;;;;;;5066026;28;20789;-77
2022/12/17 13:52:24;;;;;;;20.58;13.65;;;3.80;81.10;;;;;;5063346;28;20191;-75
2022/12/17 13:54:51;;;;;;;17.05;13.30;;;3.70;91.60;;;;;;5080570;28;20593;-74
2022/12/17 13:57:24;;;;;;;18.95;13.32;;;3.60;94.50;;;;;;5073288;28;20265;-74
2022/12/17 13:59:53;;;;;;;17.70;12.57;;;3.30;91.80;;;;;;5076179;28;20666;-74
2022/12/17 14:02:28;;;;;;;22.27;13.90;;;3.00;92.50;;;;;;5079881;28;20175;-74
2022/12/17 14:04:56;;;;;;;17.73;13.27;;;2.80;94.40;;;;;;5082196;28;20218;-74
2022/12/17 14:07:24;;;;;;;17.17;13.25;;;2.50;93.10;;;;;;5072123;28;20206;-74
2022/12/17 14:09:49;;;;;;;18.23;13.57;;;2.20;93.10;;;;;;5066139;28;20199;-75
2022/12/17 14:12:20;;;;;;;20.13;13.30;;;2.00;94.30;;;;;;5077089;28;20175;-74
2022/12/17 14:14:48;;;;;;;17.38;12.80;;;1.90;97.00;;;;;;5073554;28;20191;-75
2022/12/17 14:17:21;;;;;;;18.52;12.32;;;1.70;97.60;;;;;;5070583;28;20591;-78
2022/12/17 14:20:11;;;;;;;17.02;12.05;;;1.60;97.70;;;;;;5069125;28;20694;-76
2022/12/17 14:22:41;;;;;;;16.25;11.95;;;1.50;99.50;;;;;;5073437;28;20566;-72
2022/12/17 14:25:37;;;;;;;19.27;13.35;;;1.30;99.90;;;;;;5071727;28;20607;-72
2022/12/17 14:28:05;;;;;;;17.20;12.30;;;1.20;99.90;;;;;;5058730;28;20194;-75
2022/12/17 14:30:39;;;;;;;17.00;12.57;;;1.20;99.90;;;;;;5069625;28;20195;-75
2022/12/17 14:33:28;;;;;;;18.73;12.43;;;1.10;99.90;;;;;;5066026;28;20197;-74
2022/12/17 14:36:01;;;;;;;20.67;13.02;;;1.00;99.90;;;;;;5069684;28;20262;-74
2022/12/17 14:38:27;;;;;;;19.17;13.27;;;0.90;99.90;;;;;;5064776;28;20282;-74
2022/12/17 14:40:59;;;;;;;19.30;11.47;;;0.80;99.90;;;;;;5070606;28;20186;-74
2022/12/17 14:43:28;;;;;;;19.53;12.17;;;0.60;99.90;;;;;;5065679;28;20182;-74
2022/12/17 14:48:59;;;;;;;20.83;13.53;;;0.40;99.90;;;;;;5066604;28;20261;-74
2022/12/17 14:51:40;;;;;;;20.47;13.80;;;0.30;99.90;;;;;;5058947;28;20175;-73
2022/12/17 14:54:21;;;;;;;20.93;14.57;;;0.10;99.90;;;;;;5068081;28;20199;-73
2022/12/17 14:56:48;;;;;;;17.37;13.70;;;0.00;99.90;;;;;;5062815;28;20214;-72
2022/12/17 14:59:36;;;;;;;20.67;15.40;;;-0.10;99.90;;;;;;5061295;28;20207;-72
2022/12/17 15:02:26;;;;;;;29.40;19.43;;;-0.20;99.90;;;;;;5057040;28;20184;-72
2022/12/17 15:04:56;;;;;;;30.00;18.20;;;-0.40;99.90;;;;;;5062427;28;20286;-72
2022/12/17 15:07:25;;;;;;;32.93;19.93;;;-0.60;99.90;;;;;;5069137;28;20262;-73
2022/12/17 15:09:52;;;;;;;24.17;16.47;;;-0.60;99.90;;;;;;5069731;28;20569;-75
2022/12/17 15:12:19;;;;;;;26.07;16.47;;;-0.70;99.90;;;;;;5066700;28;20659;-75
2022/12/17 15:14:45;;;;;;;19.33;14.57;;;-0.90;99.90;;;;;;5065366;28;20203;-72
2022/12/17 15:17:11;;;;;;;21.83;15.20;;;-1.00;99.90;;;;;;5068613;28;20175;-72
2022/12/17 15:19:36;;;;;;;24.53;14.97;;;-1.10;99.90;;;;;;5063955;28;20692;-72
2022/12/17 15:22:03;;;;;;;22.77;15.47;;;-1.20;99.90;;;;;;5066380;28;20737;-72
2022/12/17 15:24:28;;;;;;;21.87;14.90;;;-1.30;99.90;;;;;;5073308;28;20183;-72
2022/12/17 15:26:54;;;;;;;22.97;15.83;;;-1.40;99.90;;;;;;5070537;28;20262;-71
2022/12/17 15:29:20;;;;;;;22.33;15.67;;;-1.50;99.90;;;;;;5074559;28;20257;-72
2022/12/17 15:31:45;;;;;;;22.17;17.30;;;-1.60;99.90;;;;;;5070583;28;20187;-71
2022/12/17 15:34:11;;;;;;;23.70;15.93;;;-1.60;99.90;;;;;;5062253;28;20199;-72
2022/12/17 15:36:36;;;;;;;25.73;16.50;;;-1.80;99.90;;;;;;5069649;28;20214;-71
2022/12/17 15:39:05;;;;;;;24.20;16.90;;;-1.80;99.90;;;;;;5067350;28;20234;-72
2022/12/17 15:44:14;;;;;;;24.00;16.73;;;-2.00;99.90;;;;;;5064247;28;20214;-73
2022/12/17 15:46:40;;;;;;;27.70;17.07;;;-2.10;99.90;;;;;;5069122;28;20183;-73
2022/12/17 15:49:06;;;;;;;28.27;17.97;;;-2.20;99.90;;;;;;5075909;28;20695;-74
2022/12/17 15:51:31;;;;;;;23.17;16.53;;;-2.30;99.90;;;;;;5069408;28;20191;-73
2022/12/17 15:53:57;;;;;;;23.63;15.60;;;-2.30;99.90;;;;;;5069278;28;20237;-73
2022/12/17 15:56:25;;;;;;;26.47;17.70;;;-2.30;99.90;;;;;;5071776;28;20670;-73
2022/12/17 15:58:50;;;;;;;26.03;17.77;;;-2.20;99.90;;;;;;5070049;28;21053;-74
2022/12/17 16:01:16;;;;;;;26.70;17.93;;;-2.30;99.90;;;;;;5075818;28;20178;-74
2022/12/17 16:03:42;;;;;;;33.57;21.80;;;-2.30;99.90;;;;;;5070111;28;20183;-73
2022/12/17 16:06:08;;;;;;;31.03;18.90;;;-2.30;99.90;;;;;;5072707;28;20186;-73
2022/12/17 16:08:36;;;;;;;33.70;21.77;;;-2.40;99.90;;;;;;5074741;28;20217;-73
2022/12/17 16:11:09;;;;;;;25.83;18.57;;;-2.50;99.90;;;;;;5071424;28;20174;-74
2022/12/17 16:13:35;;;;;;;32.30;20.70;;;-2.50;99.90;;;;;;5066334;28;20199;-73
2022/12/17 16:16:01;;;;;;;31.63;20.20;;;-2.60;99.90;;;;;;5065951;28;20188;-74
2022/12/17 16:18:27;;;;;;;26.53;19.07;;;-2.60;99.90;;;;;;5071583;28;20200;-74
2022/12/17 16:20:53;;;;;;;31.80;20.90;;;-2.60;99.90;;;;;;5078457;28;20190;-74
2022/12/17 16:23:19;;;;;;;32.83;21.50;;;-2.60;99.90;;;;;;5068839;28;20182;-74
2022/12/17 16:25:55;;;;;;;35.50;21.70;;;-2.70;99.90;;;;;;5070471;28;20195;-74
2022/12/17 16:28:21;;;;;;;29.90;19.57;;;-2.80;99.90;;;;;;5071418;28;20547;-73
2022/12/17 16:31:00;;;;;;;33.00;22.37;;;-2.90;99.90;;;;;;5072769;28;20190;-74
2022/12/17 16:33:30;;;;;;;32.00;21.30;;;-2.90;99.90;;;;;;5073979;28;20217;-74
2022/12/17 16:35:56;;;;;;;35.97;22.70;;;-3.00;99.90;;;;;;5070858;28;20182;-74
2022/12/17 16:38:21;;;;;;;36.03;22.17;;;-3.10;99.90;;;;;;5064723;28;20233;-74
2022/12/17 16:40:47;;;;;;;32.27;22.17;;;-3.10;99.90;;;;;;5061404;28;20175;-74
2022/12/17 16:43:13;;;;;;;35.43;23.93;;;-3.10;99.90;;;;;;5065282;28;20233;-74
2022/12/17 16:45:47;;;;;;;39.33;23.27;;;-3.20;99.90;;;;;;5066457;28;20207;-74
2022/12/17 16:48:13;;;;;;;34.87;23.10;;;-3.20;99.90;;;;;;5071407;28;20722;-74
2022/12/17 16:50:38;;;;;;;33.60;22.10;;;-3.30;99.90;;;;;;5077640;28;20180;-74
2022/12/17 16:53:04;;;;;;;35.93;22.10;;;-3.30;99.90;;;;;;5069872;28;20656;-74
2022/12/17 16:55:29;;;;;;;40.27;25.27;;;-3.40;99.90;;;;;;5066562;28;20604;-74
2022/12/17 16:57:55;;;;;;;33.77;21.87;;;-3.40;99.90;;;;;;5078533;28;20171;-74
2022/12/17 17:00:20;;;;;;;32.50;20.60;;;-3.50;99.90;;;;;;5062533;28;20205;-74
2022/12/17 17:02:46;;;;;;;32.63;21.30;;;-3.60;99.90;;;;;;5071350;28;20646;-74
2022/12/17 17:05:12;;;;;;;33.97;21.10;;;-3.60;99.90;;;;;;5068064;28;20179;-74
2022/12/17 17:07:37;;;;;;;38.00;21.70;;;-3.60;99.90;;;;;;5075437;28;20634;-74
2022/12/17 17:10:03;;;;;;;37.03;22.70;;;-3.60;99.90;;;;;;5070090;28;20244;-74
2022/12/17 17:12:29;;;;;;;37.63;22.10;;;-3.60;99.90;;;;;;5070943;28;20546;-74
2022/12/17 17:14:55;;;;;;;37.80;22.93;;;-3.60;99.90;;;;;;5068208;28;20289;-74
2022/12/17 17:17:21;;;;;;;35.07;21.63;;;-3.70;99.90;;;;;;5073761;28;20213;-74
2022/12/17 17:19:46;;;;;;;37.57;22.87;;;-3.80;99.90;;;;;;5068413;28;20231;-74
2022/12/17 17:22:12;;;;;;;33.97;20.60;;;-3.80;99.90;;;;;;5068355;28;20273;-74
2022/12/17 17:24:37;;;;;;;34.60;22.37;;;-3.90;99.90;;;;;;5066855;28;20183;-74
2022/12/17 17:27:03;;;;;;;37.00;22.80;;;-3.90;99.90;;;;;;5070717;28;20172;-73
2022/12/17 17:29:28;;;;;;;42.70;23.80;;;-3.90;99.90;;;;;;5064951;28;20199;-74
2022/12/17 17:31:54;;;;;;;38.20;22.50;;;-4.00;99.90;;;;;;5066083;28;20182;-73
2022/12/17 17:34:20;;;;;;;47.77;25.23;;;-4.00;99.90;;;;;;5064385;28;20317;-74
2022/12/17 17:36:45;;;;;;;38.13;24.17;;;-4.10;99.90;;;;;;5062014;28;20168;-74
2022/12/17 17:39:14;;;;;;;42.70;25.30;;;-4.20;99.90;;;;;;5071008;28;20191;-74
2022/12/17 17:41:39;;;;;;;42.60;25.73;;;-4.10;99.90;;;;;;5076247;28;20314;-74
2022/12/17 17:44:07;;;;;;;41.30;24.93;;;-4.20;99.90;;;;;;5069429;28;20262;-74
2022/12/17 17:46:34;;;;;;;42.93;27.07;;;-4.30;99.90;;;;;;5066965;28;20183;-74
2022/12/17 17:49:02;;;;;;;42.33;25.43;;;-4.40;99.90;;;;;;5069574;28;20210;-74
2022/12/17 17:51:31;;;;;;;43.67;25.70;;;-4.50;99.90;;;;;;5069634;28;20187;-74
2022/12/17 17:53:58;;;;;;;42.77;27.03;;;-4.60;99.90;;;;;;5064455;28;20344;-75
2022/12/17 17:56:27;;;;;;;48.67;28.43;;;-4.70;99.90;;;;;;5066641;28;20555;-75
2022/12/17 17:58:57;;;;;;;47.97;27.40;;;-4.80;99.90;;;;;;5070718;28;20190;-75
2022/12/17 18:01:30;;;;;;;44.47;26.83;;;-4.80;99.90;;;;;;5076124;28;20227;-75
2022/12/17 18:03:59;;;;;;;47.17;28.60;;;-4.80;99.90;;;;;;5069438;28;20194;-75
2022/12/17 18:06:26;;;;;;;44.43;27.33;;;-4.80;99.90;;;;;;5070225;28;20190;-75
2022/12/17 18:08:54;;;;;;;42.10;26.40;;;-4.80;99.90;;;;;;5065454;28;20244;-75
2022/12/17 18:11:20;;;;;;;46.87;26.77;;;-4.80;99.90;;;;;;5060724;28;20194;-75
2022/12/17 18:13:55;;;;;;;44.33;25.87;;;-4.80;99.90;;;;;;5067991;28;20560;-75
2022/12/17 18:16:29;;;;;;;40.10;25.33;;;-4.80;99.90;;;;;;5068386;28;20178;-75
2022/12/17 18:19:07;;;;;;;49.10;27.60;;;-4.80;99.90;;;;;;5055710;28;20819;-73
2022/12/17 18:21:33;;;;;;;46.97;27.93;;;-4.80;99.90;;;;;;5064633;28;20183;-73
2022/12/17 18:24:05;;;;;;;43.30;26.73;;;-4.90;99.90;;;;;;5060856;28;20678;-73
2022/12/17 18:26:36;;;;;;;40.67;26.10;;;-4.90;99.90;;;;;;5068252;28;20183;-74
2022/12/17 18:29:27;;;;;;;41.27;26.90;;;-4.90;99.90;;;;;;5066364;28;20199;-75
2022/12/17 18:31:53;;;;;;;41.40;27.00;;;-4.90;99.90;;;;;;5062565;28;20213;-74
2022/12/17 18:34:25;;;;;;;41.37;25.20;;;-4.90;99.90;;;;;;5073897;28;20703;-75
2022/12/17 18:36:51;;;;;;;46.43;28.30;;;-4.90;99.90;;;;;;5076226;28;20230;-73
2022/12/17 18:39:20;;;;;;;41.20;26.63;;;-5.00;99.90;;;;;;5066170;28;20215;-74
2022/12/17 18:44:34;;;;;;;49.00;27.97;;;-5.10;99.90;;;;;;5063715;28;20710;-73
2022/12/17 18:47:00;;;;;;;46.20;27.30;;;-5.20;99.90;;;;;;5060877;28;20266;-73
2022/12/17 18:49:25;;;;;;;44.40;29.20;;;-5.20;99.90;;;;;;5059017;28;20373;-73
2022/12/17 18:51:52;;;;;;;43.57;28.60;;;-5.30;99.90;;;;;;5064301;28;20248;-72
2022/12/17 18:54:29;;;;;;;41.70;25.83;;;-5.30;99.90;;;;;;5064257;28;20229;-73
2022/12/17 18:56:56;;;;;;;49.10;27.73;;;-5.30;99.90;;;;;;5066028;28;20171;-73
2022/12/17 18:59:24;;;;;;;46.30;28.57;;;-5.30;99.90;;;;;;5058385;28;20203;-73
2022/12/17 19:01:50;;;;;;;45.07;28.20;;;-5.30;99.90;;;;;;5061558;28;20198;-73
2022/12/17 19:04:18;;;;;;;46.97;30.60;;;-5.40;99.90;;;;;;5061668;28;20194;-73
2022/12/17 19:06:45;;;;;;;53.47;31.27;;;-5.50;99.90;;;;;;5066873;28;20740;-73
2022/12/17 19:09:26;;;;;;;52.23;31.27;;;-5.50;99.90;;;;;;5063733;28;20202;-73
2022/12/17 19:11:52;;;;;;;45.40;28.93;;;-5.50;99.90;;;;;;5061905;28;20190;-73
2022/12/17 19:14:21;;;;;;;47.80;29.53;;;-5.50;99.90;;;;;;5059592;28;20207;-74
2022/12/17 19:16:47;;;;;;;51.50;29.47;;;-5.30;99.90;;;;;;5061572;28;20182;-72
2022/12/17 19:19:13;;;;;;;45.37;27.67;;;-5.10;99.90;;;;;;5068436;28;20195;-72
2022/12/17 19:21:39;;;;;;;51.90;28.73;;;-4.90;99.90;;;;;;5057475;28;20237;-72
2022/12/17 19:24:07;;;;;;;54.03;30.40;;;-4.80;99.90;;;;;;5058996;28;20219;-73
2022/12/17 19:26:33;;;;;;;55.57;30.53;;;-4.70;99.90;;;;;;5059707;28;20236;-74
2022/12/17 19:29:00;;;;;;;63.73;31.40;;;-4.50;99.90;;;;;;5083597;28;20699;-73
2022/12/17 19:31:28;;;;;;;59.37;33.83;;;-4.50;99.90;;;;;;5066547;28;20641;-73
2022/12/17 19:33:55;;;;;;;59.20;32.53;;;-4.50;99.90;;;;;;5069343;28;20703;-74
2022/12/17 19:36:22;;;;;;;68.43;33.87;;;-4.50;99.90;;;;;;5059158;28;20186;-75
2022/12/17 19:38:53;;;;;;;62.87;31.40;;;-4.50;99.90;;;;;;5069497;28;20332;-74
2022/12/17 19:41:20;;;;;;;59.83;30.67;;;-4.40;99.90;;;;;;5068439;28;20188;-74
2022/12/17 19:43:47;;;;;;;57.53;32.10;;;-4.30;99.90;;;;;;5069183;28;20299;-73
2022/12/17 19:46:17;;;;;;;54.77;31.37;;;-4.20;99.90;;;;;;5060207;28;20192;-73
2022/12/17 19:48:45;;;;;;;55.50;30.27;;;-4.20;99.90;;;;;;5059803;28;20217;-74
2022/12/17 19:51:11;;;;;;;63.37;34.10;;;-4.30;99.90;;;;;;5062473;28;20187;-74
2022/12/17 19:53:40;;;;;;;61.30;33.37;;;-4.20;99.90;;;;;;5061184;28;20293;-74
2022/12/17 19:59:41;;;;;;;167.87;47.03;;;-4.10;99.90;;;;;;5985245;23;20173;-73
2022/12/17 20:02:08;;;;;;;66.43;34.37;;;-4.20;99.90;;;;;;5029898;28;20241;-74
2022/12/17 20:04:34;;;;;;;77.07;38.17;;;-4.10;99.90;;;;;;5037613;28;20258;-75
2022/12/17 20:07:00;;;;;;;70.33;34.67;;;-4.10;99.90;;;;;;5039557;28;20642;-73
2022/12/17 20:09:25;;;;;;;67.13;33.67;;;-4.10;99.90;;;;;;5043779;28;20215;-74
2022/12/17 20:11:51;;;;;;;74.67;31.90;;;-4.10;99.90;;;;;;5060538;28;20692;-75
2022/12/17 20:14:20;;;;;;;63.87;33.27;;;-4.10;99.90;;;;;;5055660;28;20195;-75
2022/12/17 20:16:47;;;;;;;59.60;30.93;;;-4.20;99.90;;;;;;5063173;28;20180;-75
2022/12/17 20:19:15;;;;;;;64.63;34.97;;;-4.10;99.90;;;;;;5067804;28;20195;-75
2022/12/17 20:21:41;;;;;;;58.50;31.53;;;-4.00;99.90;;;;;;5065790;28;20183;-74
2022/12/17 20:24:08;;;;;;;60.93;31.07;;;-3.90;99.90;;;;;;5064245;28;20254;-74
2022/12/17 20:26:35;;;;;;;62.67;33.23;;;-3.90;99.90;;;;;;5065238;28;20611;-75
2022/12/17 20:29:02;;;;;;;61.37;33.13;;;-3.90;99.90;;;;;;5059952;28;20195;-74
2022/12/17 20:31:28;;;;;;;56.63;31.53;;;-3.90;99.90;;;;;;5063608;28;20175;-75
2022/12/17 20:33:53;;;;;;;55.23;32.53;;;-3.80;99.90;;;;;;5064351;28;20261;-74
2022/12/17 20:36:20;;;;;;;58.33;34.83;;;-3.70;99.90;;;;;;5064217;28;20218;-75
2022/12/17 20:38:46;;;;;;;66.50;34.57;;;-3.80;99.90;;;;;;5060637;28;20187;-75
2022/12/17 20:41:18;;;;;;;63.73;36.53;;;-3.80;99.90;;;;;;5062090;28;20175;-75
2022/12/17 20:43:44;;;;;;;78.87;37.90;;;-3.80;99.90;;;;;;5065261;28;20183;-76
2022/12/17 20:46:10;;;;;;;62.73;33.27;;;-3.80;99.90;;;;;;5059765;28;20197;-75
2022/12/17 20:48:37;;;;;;;64.97;35.17;;;-3.80;99.90;;;;;;5056622;28;20183;-75
2022/12/17 20:51:30;;;;;;;67.87;36.10;;;-3.90;99.90;;;;;;5059180;28;20175;-75
2022/12/17 20:53:57;;;;;;;55.23;30.37;;;-3.80;99.90;;;;;;5056559;28;20247;-75
2022/12/17 20:56:25;;;;;;;58.40;32.77;;;-3.70;99.90;;;;;;5060419;28;20514;-75
2022/12/17 20:58:56;;;;;;;64.97;35.53;;;-3.70;99.90;;;;;;5064222;28;20202;-75
2022/12/17 21:01:23;;;;;;;65.57;35.90;;;-3.80;99.90;;;;;;5060560;28;20262;-75
2022/12/17 21:03:51;;;;;;;64.27;36.00;;;-3.80;99.90;;;;;;5065270;28;20187;-76
2022/12/17 21:06:19;;;;;;;61.80;33.17;;;-3.70;99.90;;;;;;5060672;28;20721;-76
2022/12/17 21:08:49;;;;;;;68.13;34.47;;;-3.70;99.90;;;;;;5057291;28;20302;-77
2022/12/17 21:11:16;;;;;;;69.43;33.97;;;-3.60;99.90;;;;;;5056938;28;20186;-76
2022/12/17 21:13:42;;;;;;;61.43;34.90;;;-3.60;99.90;;;;;;5059245;28;20196;-76
2022/12/17 21:16:26;;;;;;;62.53;33.67;;;-3.60;99.90;;;;;;5070488;28;20171;-77
2022/12/17 21:18:56;;;;;;;62.17;34.83;;;-3.60;99.90;;;;;;5070118;28;20201;-76
2022/12/17 21:21:24;;;;;;;56.80;32.53;;;-3.70;99.90;;;;;;5071090;28;20207;-77
2022/12/17 21:23:50;;;;;;;61.73;34.43;;;-3.60;99.90;;;;;;5065922;28;20215;-76
2022/12/17 21:26:22;;;;;;;64.10;34.80;;;-3.50;99.90;;;;;;5069547;28;20203;-76
2022/12/17 21:28:50;;;;;;;61.27;33.53;;;-3.40;99.90;;;;;;5067799;28;20218;-77
2022/12/17 21:31:24;;;;;;;56.37;32.70;;;-3.50;99.90;;;;;;5062445;28;20181;-78
2022/12/17 21:33:52;;;;;;;61.63;34.37;;;-3.60;99.90;;;;;;5068644;28;20290;-78
2022/12/17 21:36:19;;;;;;;59.90;33.73;;;-3.60;99.90;;;;;;5062887;28;20892;-77
2022/12/17 21:38:46;;;;;;;64.00;36.00;;;-3.60;99.90;;;;;;5064378;28;20240;-78
2022/12/17 21:41:17;;;;;;;64.37;33.67;;;-3.50;99.90;;;;;;5065195;28;20223;-78
2022/12/17 21:43:43;;;;;;;61.00;33.93;;;-3.50;99.90;;;;;;5083702;28;20190;-77
2022/12/17 21:46:10;;;;;;;61.97;33.77;;;-3.50;99.90;;;;;;5069112;28;20297;-78
2022/12/17 21:48:37;;;;;;;55.43;32.33;;;-3.40;99.90;;;;;;5066023;28;20186;-77
2022/12/17 21:51:08;;;;;;;63.00;35.40;;;-3.40;99.90;;;;;;5062898;28;20251;-77
2022/12/17 21:53:34;;;;;;;67.60;38.77;;;-3.40;99.90;;;;;;5065856;28;20227;-76
2022/12/17 21:56:06;;;;;;;59.30;34.90;;;-3.30;99.90;;;;;;5067871;28;20176;-75
2022/12/17 21:58:32;;;;;;;55.90;32.23;;;-3.30;99.90;;;;;;5069464;28;20171;-77
2022/12/17 22:00:58;;;;;;;55.07;31.70;;;-3.30;99.90;;;;;;5067333;28;20183;-76
2022/12/17 22:03:24;;;;;;;61.23;34.43;;;-3.30;99.90;;;;;;5067027;28;20199;-76
2022/12/17 22:05:49;;;;;;;54.17;30.73;;;-3.20;99.90;;;;;;5066137;28;20225;-76
2022/12/17 22:08:15;;;;;;;58.77;31.40;;;-3.20;99.90;;;;;;5065514;28;20632;-75
2022/12/17 22:10:42;;;;;;;56.90;32.67;;;-3.20;99.90;;;;;;5067939;28;20210;-76
2022/12/17 22:15:53;;;;;;;56.10;34.13;;;-3.20;99.90;;;;;;5069704;28;20598;-76
2022/12/17 22:18:19;;;;;;;57.43;30.47;;;-3.30;99.90;;;;;;5058227;28;20207;-77
2022/12/17 22:20:44;;;;;;;57.80;32.47;;;-3.30;99.90;;;;;;5067786;28;20195;-77
2022/12/17 22:23:10;;;;;;;51.20;31.17;;;-3.20;99.90;;;;;;5072649;28;20186;-77
2022/12/17 22:25:37;;;;;;;56.50;31.23;;;-3.20;99.90;;;;;;5060482;28;21070;-77
2022/12/17 22:28:03;;;;;;;53.87;33.33;;;-3.20;99.90;;;;;;5064497;28;20184;-76
2022/12/17 22:33:14;;;;;;;47.87;29.50;;;-3.20;99.90;;;;;;5070922;28;20209;-76
2022/12/17 22:35:45;;;;;;;51.77;27.83;;;-3.10;99.90;;;;;;5065236;28;20554;-76
2022/12/17 22:38:10;;;;;;;46.30;26.23;;;-3.20;99.90;;;;;;5067134;28;20202;-77
2022/12/17 22:40:37;;;;;;;51.17;27.60;;;-3.20;99.90;;;;;;5068620;28;20219;-76
2022/12/17 22:45:48;;;;;;;51.63;29.20;;;-3.20;99.90;;;;;;5068184;28;20262;-78
2022/12/17 22:48:14;;;;;;;49.70;28.57;;;-3.10;99.90;;;;;;5064994;28;20270;-76
2022/12/17 22:50:40;;;;;;;52.60;30.33;;;-3.10;99.90;;;;;;5065390;28;20637;-75
2022/12/17 22:53:06;;;;;;;46.77;27.40;;;-3.00;99.90;;;;;;5073067;28;20211;-76
2022/12/17 22:55:33;;;;;;;51.53;28.90;;;-3.00;99.90;;;;;;5073446;28;20241;-76
2022/12/17 22:57:59;;;;;;;52.97;27.97;;;-3.00;99.90;;;;;;5070735;28;20175;-77
2022/12/17 23:00:28;;;;;;;46.90;27.10;;;-3.00;99.90;;;;;;5062244;28;20255;-78
2022/12/17 23:02:54;;;;;;;43.10;25.33;;;-3.00;99.90;;;;;;5067002;28;20273;-78
2022/12/17 23:05:21;;;;;;;45.97;28.30;;;-3.10;99.90;;;;;;5067119;28;20216;-77
2022/12/17 23:07:48;;;;;;;44.73;26.63;;;-3.20;99.90;;;;;;5057330;28;20267;-75
2022/12/17 23:10:14;;;;;;;45.07;27.10;;;-3.20;99.90;;;;;;5071489;28;20198;-75
2022/12/17 23:12:49;;;;;;;47.37;28.27;;;-3.10;99.90;;;;;;5063164;28;20238;-77
2022/12/17 23:15:19;;;;;;;46.33;27.53;;;-3.10;99.90;;;;;;5058309;28;20195;-77
2022/12/17 23:17:45;;;;;;;40.57;24.40;;;-3.10;99.90;;;;;;5056565;28;20203;-76
2022/12/17 23:20:12;;;;;;;45.30;28.07;;;-3.10;99.90;;;;;;5063216;28;20282;-76
2022/12/17 23:22:37;;;;;;;53.27;27.03;;;-3.20;99.90;;;;;;5062086;28;20176;-75
2022/12/17 23:25:03;;;;;;;47.37;26.83;;;-3.20;99.90;;;;;;5065809;28;20183;-76
2022/12/17 23:27:30;;;;;;;46.00;25.67;;;-3.20;99.90;;;;;;5068420;28;20233;-75
2022/12/17 23:29:55;;;;;;;42.67;25.53;;;-3.10;99.90;;;;;;5064622;28;20206;-77
2022/12/17 23:32:21;;;;;;;40.33;24.53;;;-3.10;99.90;;;;;;5061649;28;20183;-77
2022/12/17 23:34:46;;;;;;;45.57;26.77;;;-3.20;99.90;;;;;;5063517;28;20301;-77
2022/12/17 23:37:12;;;;;;;48.53;26.83;;;-3.20;99.90;;;;;;5067023;28;20561;-77
2022/12/17 23:39:37;;;;;;;45.93;27.47;;;-3.30;99.90;;;;;;5061647;28;20204;-77
2022/12/17 23:42:03;;;;;;;52.73;26.30;;;-3.30;99.90;;;;;;5070277;28;20182;-77
2022/12/17 23:44:29;;;;;;;45.87;25.00;;;-3.40;99.90;;;;;;5068790;28;20180;-76
2022/12/17 23:46:54;;;;;;;45.27;25.47;;;-3.50;99.90;;;;;;5067234;28;20183;-77
2022/12/17 23:49:20;;;;;;;39.80;23.83;;;-3.30;99.90;;;;;;5068871;28;20202;-77
2022/12/17 23:51:45;;;;;;;43.33;24.30;;;-3.20;99.90;;;;;;5065831;28;20626;-77
2022/12/17 23:54:11;;;;;;;46.43;25.20;;;-3.20;99.90;;;;;;5066571;28;20206;-77
2022/12/17 23:56:37;;;;;;;43.17;24.17;;;-3.20;99.90;;;;;;5067418;28;20187;-77
2022/12/17 23:59:03;;;;;;;43.13;23.63;;;-3.20;99.90;;;;;;5062990;28;20245;-75
